createdAt,value
2016-03-31T00:00:34.238Z,9.92
2016-03-31T00:01:34.195Z,9.87
2016-03-31T00:02:34.181Z,9.94
2016-03-31T00:03:34.153Z,9.87
2016-03-31T00:04:34.124Z,9.89
2016-03-31T00:05:34.096Z,9.91
2016-03-31T00:06:34.083Z,9.92
2016-03-31T00:07:34.053Z,9.94
2016-03-31T00:08:34.041Z,9.89
2016-03-31T00:09:34.012Z,9.94
2016-03-31T00:10:33.984Z,9.94
2016-03-31T00:11:33.955Z,9.94
2016-03-31T00:12:33.927Z,9.86
2016-03-31T00:13:33.898Z,9.94
2016-03-31T00:14:33.886Z,9.95
2016-03-31T00:15:33.858Z,9.94
2016-03-31T00:16:33.828Z,9.94
2016-03-31T00:17:33.821Z,9.97
2016-03-31T00:18:33.781Z,9.95
2016-03-31T00:19:33.761Z,9.83
2016-03-31T00:20:33.738Z,9.87
2016-03-31T00:21:33.709Z,9.83
2016-03-31T00:22:33.696Z,9.82
2016-03-31T00:23:33.651Z,9.91
2016-03-31T00:24:33.639Z,9.87
2016-03-31T00:25:33.610Z,9.82
2016-03-31T00:26:33.597Z,9.86
2016-03-31T00:27:33.569Z,9.91
2016-03-31T00:28:33.540Z,9.86
2016-03-31T00:29:33.512Z,9.87
2016-03-31T00:30:33.488Z,9.8
2016-03-31T00:31:33.475Z,9.8
2016-03-31T00:32:33.294Z,9.77
2016-03-31T00:33:33.421Z,9.77
2016-03-31T00:34:33.392Z,9.79
2016-03-31T00:35:33.364Z,9.77
2016-03-31T00:36:33.335Z,9.77
2016-03-31T00:37:33.323Z,9.79
2016-03-31T00:38:33.294Z,9.79
2016-03-31T00:39:33.264Z,9.69
2016-03-31T00:40:33.237Z,9.79
2016-03-31T00:41:33.208Z,9.76
2016-03-31T00:42:33.195Z,9.73
2016-03-31T00:43:33.167Z,9.74
2016-03-31T00:44:33.138Z,9.74
2016-03-31T00:45:33.109Z,9.76
2016-03-31T00:46:32.941Z,9.72
2016-03-31T00:47:33.068Z,9.69
2016-03-31T00:48:33.039Z,9.73
2016-03-31T00:49:33.011Z,9.77
2016-03-31T00:50:32.997Z,9.69
2016-03-31T00:51:32.986Z,9.72
2016-03-31T00:52:32.941Z,9.62
2016-03-31T00:53:32.913Z,9.69
2016-03-31T00:54:32.899Z,9.65
2016-03-31T00:55:32.871Z,9.64
2016-03-31T00:56:32.842Z,9.61
2016-03-31T00:57:32.813Z,9.66
2016-03-31T00:58:32.801Z,9.66
2016-03-31T00:59:32.772Z,9.59
2016-03-31T01:00:32.743Z,9.66
2016-03-31T01:01:32.731Z,9.61
2016-03-31T01:02:32.702Z,9.61
2016-03-31T01:03:32.673Z,9.61
2016-03-31T01:04:32.645Z,9.56
2016-03-31T01:05:32.617Z,9.61
2016-03-31T01:06:32.619Z,9.58
2016-03-31T01:07:32.575Z,9.61
2016-03-31T01:08:32.546Z,9.65
2016-03-31T01:09:32.517Z,9.62
2016-03-31T01:10:32.506Z,9.61
2016-03-31T01:11:32.476Z,9.65
2016-03-31T01:12:32.448Z,9.62
2016-03-31T01:13:32.419Z,9.58
2016-03-31T01:14:32.406Z,9.56
2016-03-31T01:15:32.378Z,9.58
2016-03-31T01:16:32.349Z,9.59
2016-03-31T01:17:32.320Z,9.64
2016-03-31T01:18:32.308Z,9.61
2016-03-31T01:19:32.279Z,9.59
2016-03-31T01:20:32.266Z,9.61
2016-03-31T01:21:32.221Z,9.58
2016-03-31T01:22:32.224Z,9.61
2016-03-31T01:23:32.165Z,9.48
2016-03-31T01:24:32.168Z,9.48
2016-03-31T01:25:32.123Z,9.43
2016-03-31T01:26:32.110Z,9.55
2016-03-31T01:27:32.065Z,9.48
2016-03-31T01:28:32.053Z,9.48
2016-03-31T01:29:32.024Z,9.46
2016-03-31T01:30:32.011Z,9.46
2016-03-31T01:31:31.982Z,9.54
2016-03-31T01:32:31.954Z,9.54
2016-03-31T01:33:31.926Z,9.54
2016-03-31T01:34:31.897Z,9.46
2016-03-31T01:35:31.884Z,9.39
2016-03-31T01:36:31.856Z,9.43
2016-03-31T01:37:31.842Z,9.48
2016-03-31T01:38:31.798Z,9.4
2016-03-31T01:39:31.787Z,9.4
2016-03-31T01:40:31.757Z,9.43
2016-03-31T01:41:31.728Z,9.41
2016-03-31T01:42:31.701Z,9.39
2016-03-31T01:43:31.687Z,9.31
2016-03-31T01:44:31.643Z,9.41
2016-03-31T01:45:31.630Z,9.31
2016-03-31T01:46:31.602Z,9.36
2016-03-31T01:47:31.573Z,9.32
2016-03-31T01:48:31.544Z,9.37
2016-03-31T01:49:31.531Z,9.4
2016-03-31T01:50:31.503Z,9.32
2016-03-31T01:51:31.474Z,9.36
2016-03-31T01:52:31.446Z,9.34
2016-03-31T01:53:31.417Z,9.28
2016-03-31T01:54:31.404Z,9.34
2016-03-31T01:55:31.376Z,9.28
2016-03-31T01:56:31.347Z,9.31
2016-03-31T01:57:31.334Z,9.31
2016-03-31T01:58:31.305Z,9.16
2016-03-31T01:59:31.277Z,9.23
2016-03-31T02:00:31.249Z,9.29
2016-03-31T02:01:31.220Z,9.29
2016-03-31T02:02:31.207Z,9.28
2016-03-31T02:03:31.179Z,9.31
2016-03-31T02:04:31.150Z,9.25
2016-03-31T02:05:31.121Z,9.23
2016-03-31T02:06:31.093Z,9.19
2016-03-31T02:07:31.073Z,9.21
2016-03-31T02:08:31.044Z,9.28
2016-03-31T02:09:31.016Z,9.23
2016-03-31T02:10:31.002Z,9.23
2016-03-31T02:11:30.975Z,9.23
2016-03-31T02:12:30.946Z,9.29
2016-03-31T02:13:30.918Z,9.22
2016-03-31T02:14:30.888Z,9.21
2016-03-31T02:15:30.876Z,9.21
2016-03-31T02:16:30.847Z,9.16
2016-03-31T02:17:30.821Z,9.08
2016-03-31T02:18:30.793Z,9.11
2016-03-31T02:19:30.765Z,9.04
2016-03-31T02:20:30.752Z,9.1
2016-03-31T02:21:30.723Z,9
2016-03-31T02:22:30.695Z,9
2016-03-31T02:23:30.665Z,9
2016-03-31T02:24:30.637Z,8.97
2016-03-31T02:25:30.639Z,8.89
2016-03-31T02:26:30.595Z,8.89
2016-03-31T02:27:30.567Z,8.94
2016-03-31T02:28:30.538Z,8.95
2016-03-31T02:29:30.525Z,8.89
2016-03-31T02:30:30.497Z,8.88
2016-03-31T02:31:30.468Z,8.92
2016-03-31T02:32:30.455Z,8.85
2016-03-31T02:33:30.411Z,8.84
2016-03-31T02:34:30.399Z,8.84
2016-03-31T02:35:30.369Z,8.91
2016-03-31T02:36:30.341Z,8.84
2016-03-31T02:37:30.313Z,8.78
2016-03-31T02:38:30.284Z,8.84
2016-03-31T02:39:30.255Z,8.84
2016-03-31T02:40:30.243Z,8.82
2016-03-31T02:41:30.213Z,8.84
2016-03-31T02:42:30.186Z,8.84
2016-03-31T02:43:30.157Z,8.87
2016-03-31T02:44:30.144Z,8.85
2016-03-31T02:45:30.115Z,8.87
2016-03-31T02:46:30.088Z,8.91
2016-03-31T02:47:30.074Z,8.85
2016-03-31T02:48:30.029Z,8.82
2016-03-31T02:49:30.017Z,8.84
2016-03-31T02:50:29.988Z,8.81
2016-03-31T02:51:29.975Z,8.85
2016-03-31T02:52:29.932Z,8.81
2016-03-31T02:53:29.918Z,8.91
2016-03-31T02:54:29.874Z,8.85
2016-03-31T02:55:29.861Z,8.85
2016-03-31T02:56:29.848Z,8.89
2016-03-31T02:57:29.804Z,8.82
2016-03-31T02:58:29.791Z,8.89
2016-03-31T02:59:29.762Z,8.88
2016-03-31T03:00:29.734Z,8.91
2016-03-31T03:01:29.705Z,8.89
2016-03-31T03:02:29.756Z,8.88
2016-03-31T03:03:29.664Z,8.92
2016-03-31T03:04:29.636Z,8.94
2016-03-31T03:05:29.607Z,8.92
2016-03-31T03:06:29.578Z,8.92
2016-03-31T03:07:29.567Z,8.95
2016-03-31T03:08:29.500Z,8.91
2016-03-31T03:09:29.488Z,8.95
2016-03-31T03:10:29.458Z,9.03
2016-03-31T03:11:29.431Z,9.02
2016-03-31T03:12:29.402Z,8.99
2016-03-31T03:13:29.389Z,8.97
2016-03-31T03:14:29.361Z,8.94
2016-03-31T03:15:29.332Z,8.91
2016-03-31T03:16:29.303Z,8.89
2016-03-31T03:17:29.166Z,8.99
2016-03-31T03:18:29.247Z,8.92
2016-03-31T03:19:29.233Z,8.99
2016-03-31T03:20:29.220Z,8.92
2016-03-31T03:21:29.177Z,8.92
2016-03-31T03:22:29.163Z,8.91
2016-03-31T03:23:29.135Z,8.92
2016-03-31T03:24:29.122Z,9.03
2016-03-31T03:25:29.093Z,8.99
2016-03-31T03:26:29.065Z,9.02
2016-03-31T03:27:29.036Z,9.02
2016-03-31T03:28:29.008Z,9.08
2016-03-31T03:29:29.026Z,9.04
2016-03-31T03:30:28.965Z,9.04
2016-03-31T03:31:28.923Z,8.99
2016-03-31T03:32:28.893Z,9.02
2016-03-31T03:33:28.881Z,8.95
2016-03-31T03:34:28.852Z,8.88
2016-03-31T03:35:28.839Z,8.92
2016-03-31T03:36:28.794Z,9.03
2016-03-31T03:37:28.781Z,8.92
2016-03-31T03:38:28.753Z,8.95
2016-03-31T03:39:28.724Z,9.06
2016-03-31T03:40:28.711Z,8.95
2016-03-31T03:41:28.667Z,8.92
2016-03-31T03:42:28.655Z,8.94
2016-03-31T03:43:28.625Z,9.03
2016-03-31T03:44:28.614Z,8.95
2016-03-31T03:45:28.569Z,9.02
2016-03-31T03:46:28.555Z,9.02
2016-03-31T03:47:28.528Z,9.04
2016-03-31T03:48:28.499Z,8.99
2016-03-31T03:49:28.471Z,8.97
2016-03-31T03:50:28.457Z,9.02
2016-03-31T03:51:28.413Z,9.02
2016-03-31T03:52:28.400Z,9.02
2016-03-31T03:53:28.372Z,9.02
2016-03-31T03:54:28.360Z,9
2016-03-31T03:55:28.315Z,8.99
2016-03-31T03:56:28.301Z,8.99
2016-03-31T03:57:28.274Z,9.02
2016-03-31T03:58:28.260Z,9.02
2016-03-31T03:59:28.216Z,9.04
2016-03-31T04:00:28.203Z,9.03
2016-03-31T04:01:28.159Z,9.06
2016-03-31T04:02:28.145Z,9
2016-03-31T04:03:28.117Z,9.06
2016-03-31T04:04:28.089Z,9.1
2016-03-31T04:05:28.076Z,9.1
2016-03-31T04:06:28.047Z,9.04
2016-03-31T04:07:28.019Z,9.02
2016-03-31T04:08:27.990Z,9
2016-03-31T04:09:27.977Z,9.06
2016-03-31T04:10:27.933Z,9.02
2016-03-31T04:11:27.936Z,9
2016-03-31T04:12:27.711Z,9.06
2016-03-31T04:13:28.708Z,9.02
2016-03-31T04:14:27.836Z,9.1
2016-03-31T04:15:27.808Z,9.06
2016-03-31T04:16:27.774Z,9.08
2016-03-31T04:17:27.746Z,9.03
2016-03-31T04:18:27.701Z,9.06
2016-03-31T04:19:27.705Z,9.13
2016-03-31T04:20:27.660Z,9.1
2016-03-31T04:21:27.646Z,9.1
2016-03-31T04:22:27.603Z,9.03
2016-03-31T04:23:27.606Z,9.06
2016-03-31T04:24:27.562Z,9.02
2016-03-31T04:25:27.564Z,9
2016-03-31T04:26:27.573Z,9.08
2016-03-31T04:27:27.612Z,8.99
2016-03-31T04:28:27.621Z,9.06
2016-03-31T04:29:27.676Z,9.02
2016-03-31T04:30:27.673Z,9
2016-03-31T04:31:27.694Z,8.92
2016-03-31T04:32:27.669Z,8.97
2016-03-31T04:33:27.643Z,8.92
2016-03-31T04:34:27.649Z,8.94
2016-03-31T04:35:27.636Z,8.95
2016-03-31T04:36:27.614Z,9.02
2016-03-31T04:37:27.607Z,8.95
2016-03-31T04:38:27.585Z,8.95
2016-03-31T04:39:27.563Z,9
2016-03-31T04:40:27.540Z,8.92
2016-03-31T04:41:27.513Z,9
2016-03-31T04:42:27.504Z,8.87
2016-03-31T04:43:27.476Z,8.91
2016-03-31T04:44:27.450Z,8.99
2016-03-31T04:45:27.424Z,9.02
2016-03-31T04:46:27.397Z,9.06
2016-03-31T04:47:27.400Z,9
2016-03-31T04:48:27.358Z,8.89
2016-03-31T04:49:27.330Z,9
2016-03-31T04:50:27.302Z,8.99
2016-03-31T04:51:27.274Z,9.08
2016-03-31T04:52:27.261Z,8.97
2016-03-31T04:53:27.233Z,8.97
2016-03-31T04:54:27.236Z,8.99
2016-03-31T04:55:27.177Z,9.06
2016-03-31T04:56:27.164Z,8.95
2016-03-31T04:57:27.136Z,9.02
2016-03-31T04:58:27.108Z,8.95
2016-03-31T04:59:27.078Z,9.02
2016-03-31T05:00:27.066Z,8.97
2016-03-31T05:01:27.022Z,9.04
2016-03-31T05:02:27.039Z,9
2016-03-31T05:03:26.981Z,9.06
2016-03-31T05:04:26.952Z,9.02
2016-03-31T05:05:26.923Z,9.04
2016-03-31T05:06:26.911Z,9.1
2016-03-31T05:07:26.148Z,9.04
2016-03-31T05:08:26.853Z,9.06
2016-03-31T05:09:26.825Z,9.1
2016-03-31T05:10:26.796Z,9.08
2016-03-31T05:11:26.768Z,9.11
2016-03-31T05:12:26.755Z,9.02
2016-03-31T05:13:26.726Z,9.1
2016-03-31T05:14:26.697Z,9.13
2016-03-31T05:15:26.763Z,9.16
2016-03-31T05:16:26.656Z,9.04
2016-03-31T05:17:26.753Z,9.21
2016-03-31T05:18:26.599Z,9.11
2016-03-31T05:19:26.570Z,9.11
2016-03-31T05:20:26.558Z,9.18
2016-03-31T05:21:26.529Z,9.13
2016-03-31T05:22:26.501Z,9.06
2016-03-31T05:23:26.487Z,9.18
2016-03-31T05:24:26.443Z,9.14
2016-03-31T05:25:26.415Z,9.14
2016-03-31T05:26:26.402Z,9.14
2016-03-31T05:27:26.390Z,9.13
2016-03-31T05:28:26.345Z,9.14
2016-03-31T05:29:26.331Z,9.11
2016-03-31T05:30:26.320Z,9.18
2016-03-31T05:31:26.275Z,9.1
2016-03-31T05:32:26.245Z,9.1
2016-03-31T05:33:26.233Z,9.1
2016-03-31T05:34:26.205Z,9.03
2016-03-31T05:35:26.175Z,9.1
2016-03-31T05:36:26.163Z,9.1
2016-03-31T05:37:26.134Z,9.1
2016-03-31T05:38:26.105Z,9.16
2016-03-31T05:39:26.078Z,9.11
2016-03-31T05:40:26.049Z,9.08
2016-03-31T05:41:26.020Z,9.06
2016-03-31T05:42:25.991Z,9.06
2016-03-31T05:43:25.979Z,9.06
2016-03-31T05:44:25.949Z,9.03
2016-03-31T05:45:25.938Z,9
2016-03-31T05:46:25.893Z,9.04
2016-03-31T05:47:25.896Z,8.99
2016-03-31T05:48:25.851Z,8.97
2016-03-31T05:49:25.824Z,9
2016-03-31T05:50:25.810Z,9.02
2016-03-31T05:51:25.765Z,9.04
2016-03-31T05:52:25.769Z,9.02
2016-03-31T05:53:25.724Z,9.04
2016-03-31T05:54:25.696Z,9.06
2016-03-31T05:55:25.668Z,9.03
2016-03-31T05:56:25.654Z,8.88
2016-03-31T05:57:25.626Z,8.95
2016-03-31T05:58:25.597Z,8.97
2016-03-31T05:59:25.584Z,9.08
2016-03-31T06:00:25.539Z,9
2016-03-31T06:01:25.512Z,9.02
2016-03-31T06:02:25.498Z,8.97
2016-03-31T06:03:25.470Z,9
2016-03-31T06:04:25.457Z,9
2016-03-31T06:05:25.413Z,8.97
2016-03-31T06:06:25.400Z,9.02
2016-03-31T06:07:25.372Z,8.97
2016-03-31T06:08:25.358Z,8.92
2016-03-31T06:09:25.314Z,8.97
2016-03-31T06:10:25.286Z,9.02
2016-03-31T06:11:25.273Z,8.97
2016-03-31T06:12:25.244Z,9
2016-03-31T06:13:25.216Z,9.04
2016-03-31T06:14:25.188Z,9.04
2016-03-31T06:15:25.174Z,9.03
2016-03-31T06:16:25.161Z,9.02
2016-03-31T06:17:25.117Z,9.04
2016-03-31T06:18:25.088Z,9.04
2016-03-31T06:19:25.076Z,9.02
2016-03-31T06:20:25.046Z,9.08
2016-03-31T06:21:25.018Z,9.08
2016-03-31T06:22:25.005Z,9.08
2016-03-31T06:23:24.977Z,9.1
2016-03-31T06:24:24.948Z,9.08
2016-03-31T06:25:24.920Z,9.02
2016-03-31T06:26:24.891Z,9.1
2016-03-31T06:27:24.863Z,9.11
2016-03-31T06:28:24.850Z,9.18
2016-03-31T06:29:24.821Z,9.14
2016-03-31T06:30:24.793Z,9.11
2016-03-31T06:31:24.795Z,9.13
2016-03-31T06:32:24.751Z,9.14
2016-03-31T06:33:24.722Z,9.16
2016-03-31T06:34:24.710Z,9.08
2016-03-31T06:35:24.681Z,9.11
2016-03-31T06:36:24.652Z,9.18
2016-03-31T06:37:24.625Z,9.08
2016-03-31T06:38:24.595Z,9.16
2016-03-31T06:39:24.567Z,9.13
2016-03-31T06:40:24.554Z,9.19
2016-03-31T06:41:24.541Z,9.23
2016-03-31T06:42:24.497Z,9.25
2016-03-31T06:43:24.483Z,9.28
2016-03-31T06:44:24.455Z,9.23
2016-03-31T06:45:24.427Z,9.23
2016-03-31T06:46:24.398Z,9.32
2016-03-31T06:47:24.370Z,9.26
2016-03-31T06:48:24.341Z,9.19
2016-03-31T06:49:24.327Z,9.21
2016-03-31T06:50:24.300Z,9.26
2016-03-31T06:51:24.271Z,9.44
2016-03-31T06:52:24.257Z,9.37
2016-03-31T06:53:24.246Z,9.4
2016-03-31T06:54:24.201Z,9.34
2016-03-31T06:55:24.188Z,9.39
2016-03-31T06:56:24.160Z,9.4
2016-03-31T06:57:24.131Z,9.37
2016-03-31T06:58:24.118Z,9.34
2016-03-31T06:59:24.073Z,9.41
2016-03-31T07:00:24.061Z,9.46
2016-03-31T07:01:24.032Z,9.5
2016-03-31T07:02:24.003Z,9.44
2016-03-31T07:03:23.820Z,9.46
2016-03-31T07:04:23.962Z,9.51
2016-03-31T07:05:23.933Z,9.48
2016-03-31T07:06:23.906Z,9.58
2016-03-31T07:07:23.892Z,9.51
2016-03-31T07:08:24.041Z,9.46
2016-03-31T07:09:23.839Z,9.48
2016-03-31T07:10:23.811Z,9.44
2016-03-31T07:11:23.783Z,9.59
2016-03-31T07:12:23.769Z,9.51
2016-03-31T07:13:23.757Z,9.51
2016-03-31T07:14:23.713Z,9.55
2016-03-31T07:15:23.699Z,9.47
2016-03-31T07:16:23.672Z,9.56
2016-03-31T07:17:23.643Z,9.61
2016-03-31T07:18:23.613Z,9.61
2016-03-31T07:19:23.602Z,9.65
2016-03-31T07:20:23.573Z,9.62
2016-03-31T07:21:23.559Z,9.72
2016-03-31T07:22:23.531Z,9.68
2016-03-31T07:23:23.519Z,9.68
2016-03-31T07:24:23.490Z,9.72
2016-03-31T07:25:23.461Z,9.69
2016-03-31T07:26:23.667Z,9.79
2016-03-31T07:27:23.748Z,9.82
2016-03-31T07:28:23.406Z,9.77
2016-03-31T07:29:23.378Z,9.8
2016-03-31T07:30:23.350Z,9.77
2016-03-31T07:31:23.336Z,9.89
2016-03-31T07:32:23.323Z,9.86
2016-03-31T07:33:23.279Z,9.89
2016-03-31T07:34:23.251Z,9.91
2016-03-31T07:35:23.222Z,9.76
2016-03-31T07:36:23.209Z,9.83
2016-03-31T07:37:23.165Z,9.83
2016-03-31T07:38:23.152Z,9.86
2016-03-31T07:39:23.124Z,9.87
2016-03-31T07:40:23.111Z,9.86
2016-03-31T07:41:23.097Z,9.91
2016-03-31T07:42:23.069Z,9.89
2016-03-31T07:43:23.025Z,9.77
2016-03-31T07:44:23.013Z,9.82
2016-03-31T07:45:23.827Z,9.79
2016-03-31T07:46:22.955Z,9.76
2016-03-31T07:47:22.941Z,9.84
2016-03-31T07:48:22.914Z,9.79
2016-03-31T07:49:22.885Z,9.82
2016-03-31T07:50:22.857Z,9.77
2016-03-31T07:51:22.844Z,9.79
2016-03-31T07:52:22.815Z,9.89
2016-03-31T07:53:22.787Z,9.79
2016-03-31T07:54:22.773Z,9.79
2016-03-31T07:55:22.760Z,9.76
2016-03-31T07:56:22.732Z,9.8
2016-03-31T07:57:22.703Z,9.82
2016-03-31T07:58:22.706Z,9.77
2016-03-31T07:59:22.678Z,9.79
2016-03-31T08:00:22.634Z,9.77
2016-03-31T08:01:22.604Z,9.79
2016-03-31T08:02:22.576Z,9.83
2016-03-31T08:03:22.563Z,9.76
2016-03-31T08:04:22.534Z,9.79
2016-03-31T08:05:22.522Z,9.77
2016-03-31T08:06:22.493Z,9.82
2016-03-31T08:07:22.465Z,9.8
2016-03-31T08:08:22.452Z,9.74
2016-03-31T08:09:22.423Z,9.66
2016-03-31T08:10:22.395Z,9.73
2016-03-31T08:11:22.570Z,9.73
2016-03-31T08:12:22.353Z,9.76
2016-03-31T08:13:22.325Z,9.74
2016-03-31T08:14:22.296Z,9.8
2016-03-31T08:15:22.267Z,9.77
2016-03-31T08:16:22.254Z,9.8
2016-03-31T08:17:22.227Z,9.8
2016-03-31T08:18:22.213Z,9.82
2016-03-31T08:19:22.216Z,9.79
2016-03-31T08:20:22.155Z,9.87
2016-03-31T08:21:22.143Z,9.97
2016-03-31T08:22:22.115Z,9.87
2016-03-31T08:23:22.101Z,9.98
2016-03-31T08:24:22.073Z,9.94
2016-03-31T08:25:22.043Z,9.89
2016-03-31T08:26:22.015Z,9.92
2016-03-31T08:27:22.003Z,9.89
2016-03-31T08:28:21.973Z,9.86
2016-03-31T08:29:21.946Z,9.84
2016-03-31T08:30:21.932Z,9.86
2016-03-31T08:31:21.951Z,10.01
2016-03-31T08:32:21.875Z,9.84
2016-03-31T08:33:21.862Z,9.97
2016-03-31T08:34:21.834Z,9.97
2016-03-31T08:35:21.821Z,9.89
2016-03-31T08:36:21.808Z,9.95
2016-03-31T08:37:21.764Z,10.07
2016-03-31T08:38:21.751Z,9.99
2016-03-31T08:39:21.722Z,10.13
2016-03-31T08:40:21.695Z,10.16
2016-03-31T08:41:21.666Z,10.22
2016-03-31T08:42:21.653Z,10.26
2016-03-31T08:43:21.625Z,10.33
2016-03-31T08:44:21.611Z,10.33
2016-03-31T08:45:21.583Z,10.34
2016-03-31T08:46:21.555Z,10.38
2016-03-31T08:47:21.541Z,10.41
2016-03-31T08:48:21.513Z,10.42
2016-03-31T08:49:21.484Z,10.38
2016-03-31T08:50:21.471Z,10.4
2016-03-31T08:51:21.442Z,10.37
2016-03-31T08:52:21.413Z,10.46
2016-03-31T08:53:21.401Z,10.54
2016-03-31T08:54:21.372Z,10.56
2016-03-31T08:55:21.359Z,10.54
2016-03-31T08:56:21.331Z,10.53
2016-03-31T08:57:21.302Z,10.57
2016-03-31T08:58:21.290Z,10.6
2016-03-31T08:59:21.323Z,10.63
2016-03-31T09:00:21.248Z,10.68
2016-03-31T09:01:21.235Z,10.63
2016-03-31T09:02:21.191Z,10.67
2016-03-31T09:03:21.178Z,10.68
2016-03-31T09:04:21.148Z,10.63
2016-03-31T09:05:21.168Z,10.6
2016-03-31T09:06:21.108Z,10.67
2016-03-31T09:07:21.078Z,10.59
2016-03-31T09:08:21.097Z,10.54
2016-03-31T09:09:21.037Z,10.54
2016-03-31T09:10:21.540Z,10.64
2016-03-31T09:11:21.011Z,10.64
2016-03-31T09:12:20.967Z,10.63
2016-03-31T09:13:20.955Z,10.68
2016-03-31T09:14:20.925Z,10.81
2016-03-31T09:15:20.944Z,10.71
2016-03-31T09:16:20.900Z,10.89
2016-03-31T09:17:21.184Z,10.82
2016-03-31T09:18:20.844Z,10.79
2016-03-31T09:19:20.830Z,10.9
2016-03-31T09:20:20.646Z,10.79
2016-03-31T09:21:20.774Z,10.92
2016-03-31T09:22:20.760Z,10.94
2016-03-31T09:23:20.732Z,10.97
2016-03-31T09:24:20.718Z,10.99
2016-03-31T09:25:20.691Z,11
2016-03-31T09:26:20.677Z,11.02
2016-03-31T09:27:20.649Z,11.04
2016-03-31T09:28:20.621Z,10.97
2016-03-31T09:29:20.623Z,10.96
2016-03-31T09:30:20.641Z,10.96
2016-03-31T09:31:20.565Z,10.99
2016-03-31T09:32:20.537Z,10.86
2016-03-31T09:33:20.524Z,10.87
2016-03-31T09:34:20.496Z,10.9
2016-03-31T09:35:20.482Z,10.82
2016-03-31T09:36:20.454Z,10.92
2016-03-31T09:37:20.426Z,10.97
2016-03-31T09:38:20.412Z,10.97
2016-03-31T09:39:20.384Z,10.97
2016-03-31T09:40:20.371Z,10.96
2016-03-31T09:41:20.359Z,11
2016-03-31T09:42:20.330Z,10.94
2016-03-31T09:43:20.317Z,11.07
2016-03-31T09:44:20.304Z,11
2016-03-31T09:45:20.276Z,11.1
2016-03-31T09:46:20.247Z,11.18
2016-03-31T09:47:20.218Z,11.15
2016-03-31T09:48:20.205Z,11.23
2016-03-31T09:49:20.176Z,11.17
2016-03-31T09:50:20.163Z,11.25
2016-03-31T09:51:20.135Z,11.32
2016-03-31T09:52:20.216Z,11.33
2016-03-31T09:53:20.094Z,11.33
2016-03-31T09:54:20.081Z,11.33
2016-03-31T09:55:20.052Z,11.44
2016-03-31T09:56:20.039Z,11.44
2016-03-31T09:57:20.027Z,11.55
2016-03-31T09:58:19.998Z,11.51
2016-03-31T09:59:19.969Z,11.63
2016-03-31T10:00:19.956Z,11.59
2016-03-31T10:01:19.943Z,11.59
2016-03-31T10:02:19.915Z,11.6
2016-03-31T10:03:19.887Z,11.66
2016-03-31T10:04:19.874Z,11.7
2016-03-31T10:05:19.860Z,11.69
2016-03-31T10:06:19.831Z,11.7
2016-03-31T10:07:19.818Z,11.7
2016-03-31T10:08:19.853Z,11.66
2016-03-31T10:09:19.778Z,11.77
2016-03-31T10:10:19.749Z,11.78
2016-03-31T10:11:19.736Z,11.88
2016-03-31T10:12:19.706Z,11.84
2016-03-31T10:13:19.694Z,12.02
2016-03-31T10:14:19.666Z,11.95
2016-03-31T10:15:19.684Z,12.09
2016-03-31T10:16:19.640Z,12.21
2016-03-31T10:17:19.736Z,12.2
2016-03-31T10:18:19.645Z,12.22
2016-03-31T10:19:19.570Z,12.25
2016-03-31T10:20:19.557Z,12.21
2016-03-31T10:21:19.561Z,12.27
2016-03-31T10:22:19.516Z,12.2
2016-03-31T10:23:19.487Z,12.25
2016-03-31T10:24:19.474Z,12.27
2016-03-31T10:25:19.461Z,12.22
2016-03-31T10:26:19.449Z,12.18
2016-03-31T10:27:19.435Z,12.27
2016-03-31T10:28:19.407Z,12.22
2016-03-31T10:29:19.393Z,12.22
2016-03-31T10:30:19.365Z,12.28
2016-03-31T10:31:19.352Z,12.27
2016-03-31T10:32:19.324Z,12.22
2016-03-31T10:33:19.342Z,12.27
2016-03-31T10:34:19.282Z,12.28
2016-03-31T10:35:19.253Z,12.29
2016-03-31T10:36:19.240Z,12.39
2016-03-31T10:37:19.228Z,12.35
2016-03-31T10:38:19.199Z,12.35
2016-03-31T10:39:19.187Z,12.27
2016-03-31T10:40:19.173Z,12.24
2016-03-31T10:41:19.160Z,12.31
2016-03-31T10:42:19.131Z,12.31
2016-03-31T10:43:19.104Z,12.5
2016-03-31T10:44:19.090Z,12.49
2016-03-31T10:45:19.062Z,12.5
2016-03-31T10:46:19.048Z,12.4
2016-03-31T10:47:19.036Z,12.47
2016-03-31T10:48:19.008Z,12.45
2016-03-31T10:49:18.994Z,12.57
2016-03-31T10:50:18.966Z,12.61
2016-03-31T10:51:18.953Z,12.61
2016-03-31T10:52:18.940Z,12.6
2016-03-31T10:53:18.911Z,12.61
2016-03-31T10:54:18.899Z,12.64
2016-03-31T10:55:18.869Z,12.73
2016-03-31T10:56:18.857Z,12.78
2016-03-31T10:57:18.860Z,12.91
2016-03-31T10:58:18.816Z,12.93
2016-03-31T10:59:18.819Z,12.87
2016-03-31T11:00:18.790Z,12.95
2016-03-31T11:01:18.777Z,12.95
2016-03-31T11:02:18.749Z,12.85
2016-03-31T11:03:18.751Z,12.82
2016-03-31T11:04:18.707Z,12.98
2016-03-31T11:05:18.694Z,12.83
2016-03-31T11:06:18.665Z,12.93
2016-03-31T11:07:18.652Z,12.91
2016-03-31T11:08:18.639Z,12.9
2016-03-31T11:09:18.610Z,13.05
2016-03-31T11:10:18.598Z,12.97
2016-03-31T11:11:18.585Z,12.98
2016-03-31T11:12:18.556Z,13
2016-03-31T11:13:18.528Z,13.05
2016-03-31T11:14:18.515Z,13.16
2016-03-31T11:15:18.502Z,13.15
2016-03-31T11:16:18.489Z,13.13
2016-03-31T11:17:18.476Z,13.18
2016-03-31T11:18:18.448Z,13.04
2016-03-31T11:19:18.434Z,13.08
2016-03-31T11:20:18.406Z,12.95
2016-03-31T11:21:18.393Z,13
2016-03-31T11:22:18.380Z,12.94
2016-03-31T11:23:18.352Z,12.94
2016-03-31T11:24:18.323Z,12.93
2016-03-31T11:25:18.311Z,12.87
2016-03-31T11:26:18.281Z,12.83
2016-03-31T11:27:18.269Z,12.73
2016-03-31T11:28:18.255Z,12.7
2016-03-31T11:29:18.227Z,12.68
2016-03-31T11:30:18.213Z,12.7
2016-03-31T11:31:18.201Z,12.65
2016-03-31T11:32:18.172Z,12.65
2016-03-31T11:33:18.174Z,12.65
2016-03-31T11:34:18.132Z,12.67
2016-03-31T11:35:18.118Z,12.76
2016-03-31T11:36:18.136Z,12.8
2016-03-31T11:37:18.076Z,12.73
2016-03-31T11:38:18.063Z,12.65
2016-03-31T11:39:18.035Z,12.72
2016-03-31T11:40:18.023Z,12.68
2016-03-31T11:41:17.993Z,12.67
2016-03-31T11:42:17.981Z,12.64
2016-03-31T11:43:17.967Z,12.73
2016-03-31T11:44:17.954Z,12.73
2016-03-31T11:45:17.926Z,12.7
2016-03-31T11:46:17.757Z,12.65
2016-03-31T11:47:17.884Z,12.61
2016-03-31T11:48:17.872Z,12.58
2016-03-31T11:49:17.842Z,12.64
2016-03-31T11:50:17.830Z,12.67
2016-03-31T11:51:17.802Z,12.61
2016-03-31T11:52:17.789Z,12.67
2016-03-31T11:53:17.776Z,12.67
2016-03-31T11:54:17.763Z,12.61
2016-03-31T11:55:17.734Z,12.6
2016-03-31T11:56:17.705Z,12.75
2016-03-31T11:57:17.693Z,12.64
2016-03-31T11:58:17.680Z,12.68
2016-03-31T11:59:17.651Z,12.64
2016-03-31T12:00:17.639Z,12.62
2016-03-31T12:01:17.782Z,12.62
2016-03-31T12:02:17.597Z,12.65
2016-03-31T12:03:17.710Z,12.62
2016-03-31T12:04:17.572Z,12.62
2016-03-31T12:05:17.543Z,12.72
2016-03-31T12:06:17.530Z,12.6
2016-03-31T12:07:17.516Z,12.58
2016-03-31T12:08:17.488Z,12.49
2016-03-31T12:09:17.459Z,12.55
2016-03-31T12:10:17.446Z,12.67
2016-03-31T12:11:17.434Z,12.73
2016-03-31T12:12:17.405Z,12.64
2016-03-31T12:13:17.377Z,12.76
2016-03-31T12:14:17.364Z,12.83
2016-03-31T12:15:17.351Z,12.86
2016-03-31T12:16:17.322Z,12.91
2016-03-31T12:17:17.309Z,12.91
2016-03-31T12:18:17.436Z,12.9
2016-03-31T12:19:17.268Z,12.8
2016-03-31T12:20:17.239Z,12.8
2016-03-31T12:21:17.242Z,12.76
2016-03-31T12:22:17.229Z,12.83
2016-03-31T12:23:17.185Z,12.9
2016-03-31T12:24:17.016Z,12.94
2016-03-31T12:25:17.159Z,12.94
2016-03-31T12:26:17.130Z,12.9
2016-03-31T12:27:17.117Z,12.97
2016-03-31T12:28:17.088Z,13.05
2016-03-31T12:29:17.075Z,12.98
2016-03-31T12:30:17.063Z,13.03
2016-03-31T12:31:17.035Z,13.05
2016-03-31T12:32:17.021Z,13.01
2016-03-31T12:33:17.211Z,13.01
2016-03-31T12:34:16.979Z,13.08
2016-03-31T12:35:16.966Z,12.98
2016-03-31T12:36:16.938Z,13.01
2016-03-31T12:37:16.926Z,13.04
2016-03-31T12:38:16.913Z,13.16
2016-03-31T12:39:16.899Z,13.16
2016-03-31T12:40:16.855Z,13.15
2016-03-31T12:41:16.842Z,13.16
2016-03-31T12:42:16.826Z,13.16
2016-03-31T12:43:16.798Z,13.18
2016-03-31T12:44:16.817Z,13.15
2016-03-31T12:45:16.773Z,13.31
2016-03-31T12:46:16.743Z,13.37
2016-03-31T12:47:16.746Z,13.38
2016-03-31T12:48:16.795Z,13.46
2016-03-31T12:49:16.705Z,13.42
2016-03-31T12:50:16.692Z,13.5
2016-03-31T12:51:16.664Z,13.54
2016-03-31T12:52:16.651Z,13.5
2016-03-31T12:53:16.637Z,13.47
2016-03-31T12:54:16.609Z,13.49
2016-03-31T12:55:16.580Z,13.53
2016-03-31T12:56:16.583Z,13.62
2016-03-31T12:57:16.555Z,13.59
2016-03-31T12:58:16.542Z,13.6
2016-03-31T12:59:16.513Z,13.49
2016-03-31T13:00:16.500Z,13.46
2016-03-31T13:01:16.471Z,13.46
2016-03-31T13:02:16.459Z,13.47
2016-03-31T13:03:16.446Z,13.5
2016-03-31T13:04:16.416Z,13.47
2016-03-31T13:05:16.404Z,13.49
2016-03-31T13:06:16.392Z,13.53
2016-03-31T13:07:16.379Z,13.49
2016-03-31T13:08:16.366Z,13.59
2016-03-31T13:09:16.338Z,13.65
2016-03-31T13:10:16.308Z,13.6
2016-03-31T13:11:16.295Z,13.57
2016-03-31T13:12:16.267Z,13.57
2016-03-31T13:13:16.254Z,13.6